Flight Track Log - Related Links

Times and Time Zones

All times are in EDT time to prevent confusion due to time zone crossing. See the N717AN flight status page for this flight to view local times or setup timezone preferences in your user account.

Time Position Orientation Groundspeed Altitude Reporting Facility
EDT Latitude Longitude Course Direction KTS MPH feet Rate Location/Type
Sun 05:56:12 AM 51.4650 -0.4960 270° West 193 222 600  Level FlightAware ADS-B
Sun 05:56:22 AM 51.4650 -0.5130 270° West 195 224 1,100 3,400 Climbing FlightAware ADS-B
Sun 05:56:42 AM 51.4655 -0.5455 271° West 193 222 2,300 2,897 Climbing FlightAware ADS-B
Sun 05:56:51 AM 51.4658 -0.5575 272° West 195 224 2,500 2,000 Climbing FlightAware ADS-B
Sun 05:57:00 AM 51.4662 -0.5717 273° West 197 227 2,900 2,250 Climbing FlightAware ADS-B
Sun 05:57:07 AM 51.4663 -0.5817 271° West 199 229 3,100 2,250 Climbing FlightAware ADS-B
Sun 05:57:16 AM 51.4665 -0.5952 271° West 198 228 3,500 2,571 Climbing FlightAware ADS-B
Sun 05:57:21 AM 51.4663 -0.6026 268° West 198 228 3,700 1,800 Climbing FlightAware ADS-B
Sun 05:57:26 AM 51.4657 -0.6094 262° West 200 230 3,800 1,333 Climbing FlightAware ADS-B
Sun 05:57:30 AM 51.4651 -0.6146 260° West 204 235 3,900 1,200 Climbing FlightAware ADS-B
Sun 05:57:36 AM 51.4636 -0.6238 255° West 213 245 4,000 632 Climbing FlightAware ADS-B
Sun 05:57:49 AM 51.4590 -0.6456 251° West 237 273 4,100 857 Climbing FlightAware ADS-B
Sun 05:57:57 AM 51.4563 -0.6599 253° West 245 282 4,300 1,600 Climbing FlightAware ADS-B
Sun 05:58:04 AM 51.4545 -0.6708 255° West 250 288 4,500 1,800 Climbing FlightAware ADS-B
Sun 05:58:07 AM 51.4537 -0.6775 259° West 251 289 4,600 1,714 Climbing FlightAware ADS-B
Sun 05:58:11 AM 51.4533 -0.6837 264° West 252 290 4,700 2,571 Climbing FlightAware ADS-B
Sun 05:58:14 AM 51.4530 -0.6908 266° West 253 291 4,900 3,000 Climbing FlightAware ADS-B
Sun 05:58:21 AM 51.4529 -0.7042 269° West 256 295 5,200 2,870 Climbing FlightAware ADS-B
Sun 05:58:37 AM 51.4531 -0.7322 271° West 253 291 6,000 2,516 Climbing FlightAware ADS-B
Sun 05:58:52 AM 51.4541 -0.7619 273° West 263 303 6,500 2,286 Climbing FlightAware ADS-B
Sun 05:58:58 AM 51.4545 -0.7742 273° West 263 303 6,800 2,769 Climbing FlightAware ADS-B
Sun 05:59:05 AM 51.4545 -0.7875 270° West 262 302 7,100 3,000 Climbing FlightAware ADS-B
Sun 05:59:16 AM 51.4540 -0.8082 268° West 260 299 7,700 2,455 Climbing FlightAware ADS-B
Sun 05:59:27 AM 51.4536 -0.8287 268° West 265 305 8,000 1,600 Climbing FlightAware ADS-B
Sun 05:59:31 AM 51.4538 -0.8369 272° West 268 308 8,100 1,500 Climbing FlightAware ADS-B
Sun 05:59:35 AM 51.4546 -0.8461 278° West 273 314 8,200 1,714 Climbing FlightAware ADS-B
Sun 05:59:38 AM 51.4555 -0.8527 282° West 277 319 8,300 1,714 Climbing FlightAware ADS-B
Sun 05:59:42 AM 51.4568 -0.8601 286° West 278 320 8,400 1,714 Climbing FlightAware ADS-B
Sun 05:59:45 AM 51.4580 -0.8662 288° West 280 322 8,500 2,526 Climbing FlightAware ADS-B
Sun 06:00:01 AM 51.4641 -0.8963 288° West 281 323 9,200 2,129 Climbing FlightAware ADS-B
Sun 06:00:16 AM 51.4709 -0.9271 289° West 294 338 9,600 1,950 Climbing FlightAware ADS-B
Sun 06:00:41 AM 51.4805 -0.9809 286° West 302 348 10,500 -150 Climbing FlightAware ADS-B
Sun 06:00:56 AM 51.4856 -1.0141 286° West 310 357 9,500 1,548 Descending FlightAware UK
Sun 06:01:12 AM 51.4906 -1.0514 286° West 329 379 11,300 3,714 Climbing FlightAware ADS-B
Sun 06:01:38 AM 51.5000 -1.1134 284° West 343 395 12,100 2,105 Climbing FlightAware ADS-B
Sun 06:02:09 AM 51.5113 -1.1927 283° West 361 415 13,300 500 Climbing FlightAware ADS-B
Sun 06:02:26 AM 51.5180 -1.2381 283° West 362 417 12,500 2,903 Descending FlightAware UK
Sun 06:02:40 AM 51.5233 -1.2743 283° West 362 417 14,800 6,444 Climbing FlightAware ADS-B
Sun 06:02:53 AM 51.5287 -1.3100 284° West 366 421 15,400 2,182 Climbing FlightAware ADS-B
Sun 06:03:02 AM 51.5337 -1.3339 289° West 371 427 15,600 1,688 Climbing FlightAware ADS-B
Sun 06:03:25 AM 51.5485 -1.3928 292° West 382 440 16,300 2,830 Climbing FlightAware ADS-B
Sun 06:03:55 AM 51.5686 -1.4711 292° West 373 429 18,100 1,200 Climbing FlightAware ADS-B
Sun 06:04:20 AM 51.5848 -1.5340 292° West 382 440 17,400 1,935 Descending FlightAware UK
Sun 06:04:26 AM 51.5885 -1.5488 292° West 383 441 19,100 4,500 Climbing FlightAware ADS-B
Sun 06:04:56 AM 51.6090 -1.6289 292° West 391 450 20,100 2,172 Climbing FlightAware ADS-B
Sun 06:05:24 AM 51.6283 -1.7069 292° West 396 456 21,200 2,100 Climbing FlightAware ADS-B
Sun 06:05:36 AM 51.6347 -1.7401 287° West 403 464 21,500 -750 Climbing FlightAware ADS-B
Sun 06:05:56 AM 51.6430 -1.7975 287° West 410 472 20,800 2,129 Descending FlightAware UK
Sun 06:06:07 AM 51.6472 -1.8323 287° West 409 471 22,600 4,000 Climbing FlightAware ADS-B
Sun 06:06:38 AM 51.6582 -1.9231 281° West 415 478 23,600 -125 Climbing FlightAware ADS-B
Sun 06:06:55 AM 51.6650 -1.9772 281° West 420 483 22,500 1,200 Descending FlightAware UK
Sun 06:07:08 AM 51.6705 -2.0171 281° West 426 490 24,200 3,409 Climbing FlightAware ADS-B
Sun 06:07:39 AM 51.6837 -2.1127 283° West 433 498 25,000 1,524 Climbing FlightAware ADS-B
Sun 06:08:11 AM 51.6982 -2.2149 283° West 443 510 25,800  Climbing FlightAware ADS-B
Sun 06:08:31 AM 51.7073 -2.2798 283° West 438 504 25,000 2,400 Descending FlightAware UK
Sun 06:08:41 AM 51.7115 -2.3115 283° West 438 504 27,000 2,000 Climbing FlightAware ADS-B
Sun 06:09:01 AM 51.7206 -2.3753 283° West 438 504 26,000 1,600 Descending FlightAware UK
Sun 06:09:11 AM 51.7256 -2.4073 283° West 440 506 27,800 5,077 Climbing FlightAware ADS-B
Sun 06:09:27 AM 51.7325 -2.4578 282° West 444 511 28,200 1,385 Climbing FlightAware ADS-B
Sun 06:09:37 AM 51.7345 -2.4907 276° West 448 516 28,400 571 Climbing FlightAware ADS-B
Sun 06:09:48 AM 51.7354 -2.5267 272° West 454 522 28,400 -2,600 Level FlightAware ADS-B
Sun 06:10:07 AM 51.7353 -2.5923 272° West 452 520 27,100 1,000 Descending FlightAware UK
Sun 06:10:18 AM 51.7352 -2.6315 272° West 466 536 28,900 1,200 Climbing FlightAware ADS-B
Sun 06:10:37 AM 51.7346 -2.6964 272° West 456 525 27,700 1,029 Descending FlightAware UK
Sun 06:10:53 AM 51.7335 -2.7528 272° West 474 545 29,500 2,939 Climbing FlightAware ADS-B
Sun 06:11:26 AM 51.7321 -2.8692 269° West 482 555 30,100 -387 Climbing FlightAware ADS-B
Sun 06:11:55 AM 51.7322 -2.9743 269° West 470 541 29,100 1,000 Descending FlightAware UK
Sun 06:12:02 AM 51.7320 -2.9850 269° West 487 560 30,700 6,750 Climbing FlightAware ADS-B
Sun 06:12:11 AM 51.7324 -3.0337 271° West 491 565 30,900 -2,057 Climbing FlightAware ADS-B
Sun 06:12:37 AM 51.7423 -3.1257 271° West 484 557 29,500 194 Descending FlightAware UK
Sun 06:12:42 AM 51.7420 -3.1280 271° West 498 573 31,000 3,000 Climbing FlightAware ADS-B
Sun 06:13:27 AM 51.7690 -3.2960 285° West 492 566 32,000 -590 Climbing FlightAware ADS-B
Sun 06:13:43 AM 51.7792 -3.3621 285° West 480 552 30,400  Descending FlightAware UK
Sun 06:14:07 AM 51.7910 -3.4380 285° West 487 560 32,000 125 Climbing FlightAware ADS-B
Sun 06:14:31 AM 51.8062 -3.5304 285° West 480 552 30,500  Descending FlightAware UK
Sun 06:14:52 AM 51.8170 -3.5970 285° West 487 560 32,000 1,475 Climbing FlightAware ADS-B
Sun 06:15:32 AM 51.8380 -3.7310 284° West 486 559 32,000 -1,607 Level FlightAware ADS-B
Sun 06:15:48 AM 51.8499 -3.8038 284° West 480 552 30,500 -2,647 Descending FlightAware UK
Sun 06:16:06 AM 51.8602 -3.8670 285° West 480 552 30,500 3,750 Level FlightAware UK
Sun 06:16:12 AM 51.8620 -3.8780 285° West 486 559 32,000  Climbing FlightAware ADS-B
Sun 06:16:30 AM 51.8739 -3.9511 285° West 480 552 30,500  Descending FlightAware UK
Sun 06:16:57 AM 51.8870 -4.0340 285° West 486 559 32,000 1,579 Climbing FlightAware ADS-B
Sun 06:17:27 AM 51.8930 -4.1430 275° West 486 559 32,000 -1,579 Level FlightAware ADS-B
Sun 06:17:54 AM 51.8927 -4.2524 275° West 480 552 30,500  Descending FlightAware UK
Sun 06:18:22 AM 51.8930 -4.3240 275° West 484 557 32,000  Climbing FlightAware ADS-B
Sun 06:18:42 AM 51.8926 -4.4255 275° West 480 552 30,500  Descending FlightAware UK
Sun 06:19:02 AM 51.8930 -4.4760 275° West 483 556 32,000  Climbing FlightAware ADS-B
Sun 06:19:24 AM 51.8929 -4.5768 275° West 482 555 30,500  Descending FlightAware UK
Sun 06:19:42 AM 51.8930 -4.6310 275° West 481 554 32,000  Climbing FlightAware ADS-B
Sun 06:20:00 AM 51.8930 -4.7061 275° West 480 552 30,500 -2,143 Descending FlightAware UK
Sun 06:20:24 AM 51.8928 -4.7920 270° West 480 552 30,500 2,143 Level FlightAware UK
Sun 06:20:42 AM 51.8910 -4.8330 270° West 479 551 32,000  Climbing FlightAware ADS-B
Sun 06:21:18 AM 51.8850 -4.9835 270° West 480 552 30,500  Descending FlightAware UK
Sun 06:21:22 AM 51.8850 -4.9760 270° West 478 550 32,000  Climbing FlightAware ADS-B
Sun 06:21:42 AM 51.8811 -5.0688 270° West 480 552 30,500 -2,368 Descending FlightAware UK
Sun 06:22:00 AM 51.8783 -5.1327 266° West 482 555 30,500 4,500 Level FlightAware UK
Sun 06:22:02 AM 51.8790 -5.1180 266° West 477 549 32,000  Climbing FlightAware ADS-B
Sun 06:22:18 AM 51.8753 -5.1964 266° West 482 555 30,500 -2,647 Descending FlightAware UK
Sun 06:22:36 AM 51.8722 -5.2600 265° West 480 552 30,500 3,103 Level FlightAware UK
Sun 06:22:47 AM 51.8710 -5.2880 265° West 474 545 32,000  Climbing FlightAware ADS-B
Sun 06:23:06 AM 51.8671 -5.3657 265° West 482 555 30,500 -2,432 Descending FlightAware UK
Sun 06:23:24 AM 51.8642 -5.4291 266° West 482 555 30,500 4,286 Level FlightAware UK
Sun 06:23:27 AM 51.8640 -5.4310 266° West 473 544 32,000  Climbing FlightAware ADS-B
Sun 06:23:42 AM 51.8611 -5.4923 266° West 484 557 30,500 -2,308 Descending FlightAware UK
Sun 06:24:06 AM 51.8570 -5.5763 266° West 478 550 30,500 3,600 Level FlightAware UK
Sun 06:24:07 AM 51.8570 -5.5680 266° West 470 541 32,000  Climbing FlightAware ADS-B
Sun 06:24:24 AM 51.8540 -5.6393 266° West 478 550 30,500 -2,571 Descending FlightAware UK
Sun 06:24:42 AM 51.8508 -5.7021 265° West 478 550 30,500 3,214 Level FlightAware UK
Sun 06:24:52 AM 51.8490 -5.7280 265° West 470 541 32,000 -200 Climbing FlightAware ADS-B
Sun 06:25:12 AM 51.8454 -5.8068 265° West 482 555 30,400 -2,526 Descending FlightAware UK
Sun 06:25:30 AM 51.8421 -5.8696 265° West 482 555 30,400 4,800 Level FlightAware UK
Sun 06:25:32 AM 51.8420 -5.8690 265° West 469 540 32,000  Climbing FlightAware ADS-B
Sun 06:25:48 AM 51.8388 -5.9323 265° West 480 552 30,400 -2,824 Descending FlightAware UK
Sun 06:26:06 AM 51.8356 -5.9941 265° West 480 552 30,400 3,310 Level FlightAware UK
Sun 06:26:17 AM 51.8340 -6.0220 265° West 466 536 32,000  Climbing FlightAware ADS-B
Sun 06:26:36 AM 51.8299 -6.0981 265° West 476 548 30,400 -2,595 Descending FlightAware UK
Sun 06:26:54 AM 51.8264 -6.1605 265° West 474 545 30,400 4,571 Level FlightAware UK
Sun 06:26:57 AM 51.8260 -6.1620 265° West 470 541 32,000 333 Climbing FlightAware ADS-B
Sun 06:27:12 AM 51.8229 -6.2232 265° West 478 550 30,500 -2,909 Descending FlightAware UK
Sun 06:27:30 AM 51.8195 -6.2863 265° West 478 550 30,400 3,600 Descending FlightAware UK
Sun 06:27:37 AM 51.8190 -6.3030 265° West 475 547 32,000  Climbing FlightAware ADS-B
Sun 06:27:54 AM 51.8148 -6.3714 265° West 478 550 30,400 -2,743 Descending FlightAware UK
Sun 06:28:12 AM 51.8113 -6.4353 265° West 478 550 30,400 3,429 Level FlightAware UK
Sun 06:28:22 AM 51.8090 -6.4670 265° West 475 547 32,000  Climbing FlightAware ADS-B
Sun 06:28:42 AM 51.8054 -6.5413 265° West 476 548 30,400 -2,526 Descending FlightAware UK
Sun 06:29:00 AM 51.8017 -6.6051 265° West 478 550 30,400 4,800 Level FlightAware UK
Sun 06:29:02 AM 51.8010 -6.6060 265° West 481 554 32,000  Climbing FlightAware ADS-B
Sun 06:29:18 AM 51.7978 -6.6691 265° West 480 552 30,400 -2,824 Descending FlightAware UK
Sun 06:29:36 AM 51.7938 -6.7334 264° West 476 548 30,400 3,310 Level FlightAware UK
Sun 06:29:47 AM 51.7920 -6.7700 264° West 483 556 32,000  Climbing FlightAware ADS-B
Sun 06:30:06 AM 51.7871 -6.8410 264° West 478 550 30,400 -2,595 Descending FlightAware UK
Sun 06:30:24 AM 51.7832 -6.9059 264° West 480 552 30,400 4,571 Level FlightAware UK
Sun 06:30:27 AM 51.7830 -6.9100 264° West 487 560 32,000  Climbing FlightAware ADS-B
Sun 06:30:42 AM 51.7793 -6.9710 264° West 482 555 30,400 -2,727 Descending FlightAware UK
Sun 06:31:00 AM 51.7754 -7.0362 265° West 482 555 30,500 3,840 Climbing FlightAware UK
Sun 06:31:07 AM 51.7740 -7.0540 265° West 487 560 32,000 -250 Climbing FlightAware ADS-B
Sun 06:31:24 AM 51.7701 -7.1229 265° West 480 552 30,400 -2,571 Descending FlightAware UK
Sun 06:31:42 AM 51.7660 -7.1870 264° West 482 555 30,500 3,429 Climbing FlightAware UK
Sun 06:31:52 AM 51.7640 -7.2160 264° West 486 559 32,000  Climbing FlightAware ADS-B
Sun 06:32:12 AM 51.7587 -7.2950 264° West 480 552 30,500 -2,368 Descending FlightAware UK
Sun 06:32:30 AM 51.7547 -7.3598 264° West 478 550 30,500 4,500 Level FlightAware UK
Sun 06:32:32 AM 51.7550 -7.3550 264° West 485 558 32,000  Climbing FlightAware ADS-B
Sun 06:32:48 AM 51.7506 -7.4245 264° West 480 552 30,500 -2,647 Descending FlightAware UK
Sun 06:33:06 AM 51.7464 -7.4892 264° West 482 555 30,500 3,103 Level FlightAware UK
Sun 06:33:17 AM 51.7440 -7.5250 264° West 485 558 32,000  Climbing FlightAware ADS-B
Sun 06:33:36 AM 51.7396 -7.5970 264° West 482 555 30,500 -2,432 Descending FlightAware UK
Sun 06:33:54 AM 51.7353 -7.6616 264° West 482 555 30,500 4,286 Level FlightAware UK
Sun 06:33:57 AM 51.7350 -7.6580 264° West 484 557 32,000  Climbing FlightAware ADS-B
Sun 06:34:12 AM 51.7308 -7.7261 264° West 478 550 30,500  Descending FlightAware UK
Sun 06:34:27 AM 51.7280 -7.7710 264° West 485 558 32,000  Climbing FlightAware ADS-B
Sun 06:34:42 AM 51.7234 -7.8336 264° West 484 557 30,500 -2,727 Descending FlightAware UK
Sun 06:35:00 AM 51.7188 -7.8980 264° West 482 555 30,500  Level FlightAware UK
Sun 06:35:18 AM 51.7143 -7.9623 264° West 482 555 30,500 4,091 Level FlightAware UK
Sun 06:35:22 AM 51.7140 -7.9610 264° West 482 555 32,000  Climbing FlightAware ADS-B
Sun 06:35:42 AM 51.7083 -8.0478 264° West 480 552 30,500 -2,368 Descending FlightAware UK
Sun 06:36:00 AM 51.7039 -8.1118 264° West 480 552 30,500 4,500 Level FlightAware UK
Sun 06:36:02 AM 51.7040 -8.0990 264° West 481 554 32,000  Climbing FlightAware ADS-B
Sun 06:36:18 AM 51.6994 -8.1758 264° West 480 552 30,500 -2,647 Descending FlightAware UK
Sun 06:36:36 AM 51.6947 -8.2397 263° West 478 550 30,500 3,103 Level FlightAware UK
Sun 06:36:47 AM 51.6930 -8.2610 263° West 482 555 32,000  Climbing FlightAware ADS-B
Sun 06:37:06 AM 51.6866 -8.3458 263° West 482 555 30,500 -2,432 Descending FlightAware UK
Sun 06:37:24 AM 51.6818 -8.4100 263° West 480 552 30,500 4,286 Level FlightAware UK
Sun 06:37:27 AM 51.6820 -8.4070 263° West 481 554 32,000  Climbing FlightAware ADS-B
Sun 06:37:42 AM 51.6770 -8.4740 263° West 482 555 30,500 -2,727 Descending FlightAware UK
Sun 06:38:00 AM 51.6722 -8.5381 263° West 482 555 30,500 3,600 Level FlightAware UK
Sun 06:38:07 AM 51.6720 -8.5410 263° West 480 552 32,000  Climbing FlightAware ADS-B
Sun 06:38:24 AM 51.6658 -8.6233 263° West 480 552 30,500 -2,571 Descending FlightAware UK
Sun 06:38:42 AM 51.6610 -8.6872 263° West 480 552 30,500 3,214 Level FlightAware UK
Sun 06:38:52 AM 51.6600 -8.7060 263° West 480 552 32,000  Climbing FlightAware ADS-B
Sun 06:39:12 AM 51.6528 -8.7935 263° West 480 552 30,500 -2,368 Descending FlightAware UK
Sun 06:39:30 AM 51.6480 -8.8573 263° West 480 552 30,500 3,600 Level FlightAware UK
Sun 06:39:37 AM 51.6470 -8.8630 263° West 479 551 32,000  Climbing FlightAware ADS-B
Sun 06:39:54 AM 51.6413 -8.9421 263° West 482 555 30,500 -2,571 Descending FlightAware UK
Sun 06:40:12 AM 51.6362 -9.0055 263° West 480 552 30,500 3,214 Level FlightAware UK
Sun 06:40:22 AM 51.6350 -9.0210 263° West 477 549 32,000 1,636 Climbing FlightAware ADS-B
Sun 06:41:07 AM 51.6220 -9.1780 262° West 477 549 32,000  Level FlightAware ADS-B
Sun 06:41:47 AM 51.6110 -9.3200 263° West 478 550 32,000  Level FlightAware ADS-B
Sun 06:42:32 AM 51.5980 -9.4810 263° West 480 552 32,000  Level FlightAware ADS-B
Sun 06:43:12 AM 51.5860 -9.6180 262° West 478 550 32,000  Level FlightAware ADS-B
Sun 06:43:47 AM 51.5760 -9.7290 262° West 476 548 32,000  Level FlightAware ADS-B
Sun 06:44:32 AM 51.5620 -9.8990 263° West 478 550 32,000  Level FlightAware ADS-B
Sun 06:45:22 AM 51.5450 -10.0880 262° West 476 548 32,000  Level FlightAware ADS-B
Sun 06:45:57 AM 51.5360 -10.1890 262° West 477 549 32,000  Level FlightAware ADS-B
Sun 06:46:42 AM 51.5210 -10.3540 262° West 479 551 32,000  Level FlightAware ADS-B
Sun 06:47:22 AM 51.5090 -10.4840 262° West 478 550 32,000  Level FlightAware ADS-B
Sun 06:48:07 AM 51.4950 -10.6430 262° West 476 548 32,000  Level FlightAware ADS-B
Sun 06:48:52 AM 51.4780 -10.8120 261° West 477 549 32,000  Level FlightAware ADS-B
Sun 06:49:47 AM 51.4630 -10.9800 262° West 477 549 32,000  Level FlightAware ADS-B
Sun 06:50:27 AM 51.4530 -11.1000 262° West 477 549 32,000 22 Level FlightAware ADS-B
Sun 06:51:12 AM 51.4320 -11.2930 260° West 32,000 22 Level FlightAware ADS-B
Sun 06:53:00 AM 51.4732 -11.6346 281° West  Level Estimated
Sun 06:54:00 AM 51.4957 -11.8246 281° West  Level Estimated
Sun 06:55:00 AM 51.5179 -12.0149 281° West  Level Estimated
Sun 06:56:00 AM 51.5397 -12.2053 281° West  Level Estimated
Sun 06:57:00 AM 51.5613 -12.3959 280° West  Level Estimated
Sun 06:58:00 AM 51.5825 -12.5866 280° West  Level Estimated
Sun 06:59:00 AM 51.6035 -12.7776 280° West  Level Estimated
Sun 07:00:00 AM 51.6241 -12.9687 280° West  Level Estimated
Sun 07:01:00 AM 51.6444 -13.1600 280° West  Level Estimated
Sun 07:02:00 AM 51.6644 -13.3515 280° West  Level Estimated
Sun 07:03:00 AM 51.6841 -13.5431 279° West  Level Estimated
Sun 07:04:00 AM 51.7034 -13.7349 279° West  Level Estimated
Sun 07:05:00 AM 51.7225 -13.9269 279° West  Level Estimated
Sun 07:06:00 AM 51.7413 -14.1190 279° West  Level Estimated
Sun 07:07:00 AM 51.7597 -14.3112 279° West  Level Estimated
Sun 07:08:00 AM 51.7778 -14.5037 279° West  Level Estimated
Sun 07:09:00 AM 51.7956 -14.6963 279° West  Level Estimated
Sun 07:10:00 AM 51.8132 -14.8895 278° West  Level Estimated
Sun 07:11:00 AM 51.8304 -15.0828 278° West  Level Estimated
Sun 07:12:00 AM 51.8473 -15.2763 278° West  Level Estimated
Sun 07:13:00 AM 51.8639 -15.4700 278° West  Level Estimated
Sun 07:14:00 AM 51.8801 -15.6638 278° West  Level Estimated
Sun 07:15:00 AM 51.8961 -15.8577 278° West  Level Estimated
Sun 07:16:00 AM 51.9117 -16.0517 278° West  Level Estimated
Sun 07:17:00 AM 51.9270 -16.2459 277° West  Level Estimated
Sun 07:18:00 AM 51.9420 -16.4403 277° West  Level Estimated
Sun 07:19:00 AM 51.9567 -16.6347 277° West  Level Estimated
Sun 07:20:00 AM 51.9710 -16.8293 277° West  Level Estimated
Sun 07:21:00 AM 51.9851 -17.0240 277° West  Level Estimated
Sun 07:22:00 AM 51.9988 -17.2188 277° West  Level Estimated
Sun 07:23:00 AM 52.0122 -17.4137 276° West  Level Estimated
Sun 07:24:00 AM 52.0252 -17.6088 276° West  Level Estimated
Sun 07:25:00 AM 52.0383 -17.8093 276° West  Level Estimated
Sun 07:26:00 AM 52.0510 -18.0099 276° West  Level Estimated
Sun 07:27:00 AM 52.0634 -18.2107 276° West  Level Estimated
Sun 07:28:00 AM 52.0755 -18.4115 276° West  Level Estimated
Sun 07:29:00 AM 52.0872 -18.6124 276° West  Level Estimated
Sun 07:30:00 AM 52.0986 -18.8135 275° West  Level Estimated
Sun 07:31:00 AM 52.1096 -19.0147 275° West  Level Estimated
Sun 07:32:00 AM 52.1203 -19.2159 275° West  Level Estimated
Sun 07:33:00 AM 52.1307 -19.4172 275° West  Level Estimated
Sun 07:34:00 AM 52.1407 -19.6187 275° West  Level Estimated
Sun 07:35:00 AM 52.1503 -19.8202 275° West  Level Estimated
Sun 07:36:00 AM 52.1597 -20.0218 274° West  Level Estimated
Sun 07:36:00 AM 51.0000 -20.0000 274° West 435 501 33,000  Level ETMS Enhanced Traffic Management System
Sun 07:37:00 AM 52.1687 -20.2235 274° West  Level Estimated
Sun 07:38:00 AM 52.1771 -20.4211 274° West  Level Estimated
Sun 07:39:00 AM 52.1852 -20.6189 274° West  Level Estimated
Sun 07:40:00 AM 52.1930 -20.8166 274° West  Level Estimated
Sun 07:41:00 AM 52.2005 -21.0145 274° West  Level Estimated
Sun 07:42:00 AM 52.2076 -21.2124 273° West  Level Estimated
Sun 07:43:00 AM 51.0497 -21.3435 273° West 435 501 33,000  Level FlightAware Transoceanic
Sun 07:44:00 AM 51.0556 -21.5357 273° West 435 501 33,000  Level FlightAware Transoceanic
Sun 07:45:00 AM 51.0611 -21.7279 273° West 435 501 33,000  Level FlightAware Transoceanic
Sun 07:46:00 AM 51.0663 -21.9201 272° West 435 501 33,000  Level FlightAware Transoceanic
Sun 07:47:00 AM 51.0712 -22.1124 272° West 435 501 33,000  Level FlightAware Transoceanic
Sun 07:48:00 AM 51.0758 -22.3048 272° West 435 501 33,000  Level FlightAware Transoceanic
Sun 07:49:00 AM 51.0801 -22.4971 272° West 435 501 33,000  Level FlightAware Transoceanic
Sun 07:50:00 AM 51.0840 -22.6895 272° West 435 501 33,000  Level FlightAware Transoceanic
Sun 07:51:00 AM 51.0877 -22.8819 272° West 435 501 33,000  Level FlightAware Transoceanic
Sun 07:52:00 AM 51.0910 -23.0744 271° West 435 501 33,000  Level FlightAware Transoceanic
Sun 07:53:00 AM 51.0940 -23.2669 271° West 435 501 33,000  Level FlightAware Transoceanic
Sun 07:54:00 AM 51.0967 -23.4594 271° West 435 501 33,000  Level FlightAware Transoceanic
Sun 07:55:00 AM 51.0990 -23.6519 271° West 435 501 33,000  Level FlightAware Transoceanic
Sun 07:56:00 AM 51.1011 -23.8445 271° West 435 501 33,000  Level FlightAware Transoceanic
Sun 07:57:00 AM 51.1028 -24.0370 271° West 435 501 33,000  Level FlightAware Transoceanic
Sun 07:58:00 AM 51.1043 -24.2296 271° West 435 501 33,000  Level FlightAware Transoceanic
Sun 07:59:00 AM 51.1054 -24.4222 270° West 435 501 33,000  Level FlightAware Transoceanic
Sun 08:00:00 AM 51.1062 -24.6148 270° West 435 501 33,000  Level FlightAware Transoceanic
Sun 08:01:00 AM 51.1066 -24.8074 270° West 435 501 33,000  Level FlightAware Transoceanic
Sun 08:02:00 AM 51.1068 -25.0000 270° West 435 501 33,000  Level FlightAware Transoceanic
Sun 08:03:00 AM 51.1066 -25.1926 270° West 435 501 33,000  Level FlightAware Transoceanic
Sun 08:04:00 AM 51.1062 -25.3852 270° West 435 501 33,000  Level FlightAware Transoceanic
Sun 08:05:00 AM 51.1054 -25.5778 270° West 435 501 33,000  Level FlightAware Transoceanic
Sun 08:06:00 AM 51.1043 -25.7704 269° West 435 501 33,000  Level FlightAware Transoceanic
Sun 08:07:00 AM 51.1028 -25.9630 269° West 435 501 33,000  Level FlightAware Transoceanic
Sun 08:08:00 AM 51.1011 -26.1555 269° West 435 501 33,000  Level FlightAware Transoceanic
Sun 08:09:00 AM 51.0990 -26.3481 269° West 435 501 33,000  Level FlightAware Transoceanic
Sun 08:10:00 AM 51.0967 -26.5406 269° West 435 501 33,000  Level FlightAware Transoceanic
Sun 08:11:00 AM 51.0940 -26.7331 269° West 435 501 33,000  Level FlightAware Transoceanic
Sun 08:12:00 AM 51.0910 -26.9256 269° West 435 501 33,000  Level FlightAware Transoceanic
Sun 08:13:00 AM 51.0877 -27.1181 268° West 435 501 33,000  Level FlightAware Transoceanic
Sun 08:14:00 AM 51.0840 -27.3105 268° West 435 501 33,000  Level FlightAware Transoceanic
Sun 08:15:00 AM 51.0801 -27.5029 268° West 435 501 33,000  Level FlightAware Transoceanic
Sun 08:16:00 AM 51.0758 -27.6952 268° West 435 501 33,000  Level FlightAware Transoceanic
Sun 08:17:00 AM 51.0712 -27.8876 268° West 435 501 33,000  Level FlightAware Transoceanic
Sun 08:18:00 AM 51.0663 -28.0799 268° West 435 501 33,000  Level FlightAware Transoceanic
Sun 08:19:00 AM 51.0611 -28.2721 267° West 435 501 33,000  Level FlightAware Transoceanic
Sun 08:20:00 AM 51.0556 -28.4643 267° West 435 501 33,000  Level FlightAware Transoceanic
Sun 08:21:00 AM 51.0497 -28.6565 267° West 435 501 33,000  Level FlightAware Transoceanic
Sun 08:22:00 AM 51.0436 -28.8486 267° West 435 501 33,000  Level FlightAware Transoceanic
Sun 08:23:00 AM 51.0371 -29.0406 267° West 435 501 33,000  Level FlightAware Transoceanic
Sun 08:24:00 AM 51.0303 -29.2326 267° West 435 501 33,000  Level FlightAware Transoceanic
Sun 08:25:00 AM 51.0232 -29.4245 267° West 435 501 33,000  Level FlightAware Transoceanic
Sun 08:26:00 AM 51.0158 -29.6164 266° West 435 501 33,000  Level FlightAware Transoceanic
Sun 08:27:00 AM 51.0080 -29.8083 266° West 435 501 33,000  Level FlightAware Transoceanic
Sun 08:28:00 AM 51.0000 -30.0009 266° West  Level FlightAware Approximate
Sun 08:29:00 AM 50.9999 -30.0018 265° West  Level FlightAware Approximate
Sun 08:30:00 AM 50.9891 -30.1936 265° West  Level FlightAware Approximate
Sun 08:31:00 AM 50.9779 -30.3853 265° West  Level FlightAware Approximate
Sun 08:32:00 AM 50.9665 -30.5770 265° West  Level FlightAware Approximate
Sun 08:33:00 AM 50.9547 -30.7685 265° West  Level FlightAware Approximate
Sun 08:34:00 AM 50.9426 -30.9599 264° West  Level FlightAware Approximate
Sun 08:35:00 AM 50.9302 -31.1513 264° West  Level FlightAware Approximate
Sun 08:36:00 AM 50.9175 -31.3425 264° West  Level FlightAware Approximate
Sun 08:37:00 AM 50.9045 -31.5336 264° West  Level FlightAware Approximate
Sun 08:38:00 AM 50.8912 -31.7246 264° West  Level FlightAware Approximate
Sun 08:39:00 AM 50.8775 -31.9155 264° West  Level FlightAware Approximate
Sun 08:40:00 AM 50.8636 -32.1063 263° West  Level FlightAware Approximate
Sun 08:41:00 AM 50.8493 -32.2970 263° West  Level FlightAware Approximate
Sun 08:42:00 AM 50.8347 -32.4875 263° West  Level FlightAware Approximate
Sun 08:43:00 AM 50.8198 -32.6780 263° West  Level FlightAware Approximate
Sun 08:44:00 AM 50.8046 -32.8683 263° West  Level FlightAware Approximate
Sun 08:45:00 AM 50.7891 -33.0585 263° West  Level FlightAware Approximate
Sun 08:46:00 AM 50.7733 -33.2485 263° West  Level FlightAware Approximate
Sun 08:47:00 AM 50.7572 -33.4385 262° West  Level FlightAware Approximate
Sun 08:48:00 AM 50.7407 -33.6283 262° West  Level FlightAware Approximate
Sun 08:49:00 AM 50.7240 -33.8179 262° West  Level FlightAware Approximate
Sun 08:50:00 AM 50.7070 -34.0075 262° West  Level FlightAware Approximate
Sun 08:51:00 AM 50.6896 -34.1968 262° West  Level FlightAware Approximate
Sun 08:52:00 AM 50.6720 -34.3861 262° West  Level FlightAware Approximate
Sun 08:53:00 AM 50.6540 -34.5752 262° West  Level FlightAware Approximate
Sun 08:54:00 AM 50.6357 -34.7642 261° West  Level FlightAware Approximate
Sun 08:55:00 AM 50.6171 -34.9530 261° West  Level FlightAware Approximate
Sun 08:56:00 AM 50.5983 -35.1416 261° West  Level FlightAware Approximate
Sun 08:57:00 AM 50.5791 -35.3301 261° West  Level FlightAware Approximate
Sun 08:58:00 AM 50.5596 -35.5185 261° West  Level FlightAware Approximate
Sun 08:59:00 AM 50.5398 -35.7067 261° West  Level FlightAware Approximate
Sun 09:00:00 AM 50.5197 -35.8947 261° West  Level FlightAware Approximate
Sun 09:01:00 AM 50.4993 -36.0826 260° West  Level FlightAware Approximate
Sun 09:02:00 AM 50.4786 -36.2703 260° West  Level FlightAware Approximate
Sun 09:03:00 AM 50.4576 -36.4579 260° West  Level FlightAware Approximate
Sun 09:04:00 AM 50.4363 -36.6452 260° West  Level FlightAware Approximate
Sun 09:05:00 AM 50.4147 -36.8325 260° West  Level FlightAware Approximate
Sun 09:06:00 AM 50.3927 -37.0195 260° West  Level FlightAware Approximate
Sun 09:07:00 AM 50.3705 -37.2064 260° West  Level FlightAware Approximate
Sun 09:08:00 AM 50.3480 -37.3931 259° West  Level FlightAware Approximate
Sun 09:09:00 AM 50.3252 -37.5796 259° West  Level FlightAware Approximate
Sun 09:10:00 AM 50.3022 -37.7659 259° West  Level FlightAware Approximate
Sun 09:11:00 AM 50.2788 -37.9520 259° West  Level FlightAware Approximate
Sun 09:12:00 AM 50.2551 -38.1380 259° West  Level FlightAware Approximate
Sun 09:13:00 AM 50.2311 -38.3238 259° West  Level FlightAware Approximate
Sun 09:14:00 AM 50.2068 -38.5094 259° West  Level FlightAware Approximate
Sun 09:15:00 AM 50.1822 -38.6948 258° West  Level FlightAware Approximate
Sun 09:16:00 AM 50.1573 -38.8800 258° West  Level FlightAware Approximate
Sun 09:17:00 AM 50.1321 -39.0650 258° West  Level FlightAware Approximate
Sun 09:18:00 AM 50.1067 -39.2498 258° West  Level FlightAware Approximate
Sun 09:19:00 AM 50.0809 -39.4344 258° West  Level FlightAware Approximate
Sun 09:20:00 AM 50.0549 -39.6189 258° West  Level FlightAware Approximate
Sun 09:21:00 AM 50.0285 -39.8031 258° West  Level FlightAware Approximate
Sun 09:22:00 AM 50.0019 -39.9871 257° West  Level FlightAware Approximate
Sun 09:23:00 AM 49.9742 -40.1706 257° West  Level FlightAware Approximate
Sun 09:24:00 AM 49.9462 -40.3539 257° West  Level FlightAware Approximate
Sun 09:25:00 AM 49.9179 -40.5370 257° West  Level FlightAware Approximate
Sun 09:26:00 AM 49.8893 -40.7199 256° West  Level FlightAware Approximate
Sun 09:27:00 AM 49.8604 -40.9025 256° West  Level FlightAware Approximate
Sun 09:28:00 AM 49.8312 -41.0850 256° West  Level FlightAware Approximate
Sun 09:29:00 AM 49.8018 -41.2672 256° West  Level FlightAware Approximate
Sun 09:30:00 AM 49.7720 -41.4492 256° West  Level FlightAware Approximate
Sun 09:31:00 AM 49.7420 -41.6310 256° West  Level FlightAware Approximate
Sun 09:32:00 AM 49.7117 -41.8125 256° West  Level FlightAware Approximate
Sun 09:33:00 AM 49.6811 -41.9938 255° West  Level FlightAware Approximate
Sun 09:34:00 AM 49.6502 -42.1749 255° West  Level FlightAware Approximate
Sun 09:35:00 AM 49.6190 -42.3558 255° West  Level FlightAware Approximate
Sun 09:36:00 AM 49.5876 -42.5364 255° West  Level FlightAware Approximate
Sun 09:37:00 AM 49.5559 -42.7168 255° West  Level FlightAware Approximate
Sun 09:38:00 AM 49.5238 -42.8970 255° West  Level FlightAware Approximate
Sun 09:39:00 AM 49.4916 -43.0769 255° West  Level FlightAware Approximate
Sun 09:40:00 AM 49.4590 -43.2566 254° West  Level FlightAware Approximate
Sun 09:41:00 AM 49.4262 -43.4360 254° West  Level FlightAware Approximate
Sun 09:42:00 AM 49.3930 -43.6152 254° West  Level FlightAware Approximate
Sun 09:43:00 AM 49.3596 -43.7942 254° West  Level FlightAware Approximate
Sun 09:44:00 AM 49.3260 -43.9729 254° West  Level FlightAware Approximate
Sun 09:45:00 AM 49.2920 -44.1513 254° West  Level FlightAware Approximate
Sun 09:46:00 AM 49.2578 -44.3296 254° West  Level FlightAware Approximate
Sun 09:47:00 AM 49.2233 -44.5075 254° West  Level FlightAware Approximate
Sun 09:48:00 AM 49.1885 -44.6853 253° West  Level FlightAware Approximate
Sun 09:49:00 AM 49.1535 -44.8627 253° West  Level FlightAware Approximate
Sun 09:50:00 AM 49.1182 -45.0400 253° West  Level FlightAware Approximate
Sun 09:51:00 AM 49.0826 -45.2169 253° West  Level FlightAware Approximate
Sun 09:52:00 AM 49.0468 -45.3937 253° West  Level FlightAware Approximate
Sun 09:53:00 AM 49.0106 -45.5701 253° West  Level FlightAware Approximate
Sun 09:54:00 AM 48.9743 -45.7463 253° West  Level FlightAware Approximate
Sun 09:55:00 AM 48.9376 -45.9222 252° West  Level FlightAware Approximate
Sun 09:56:00 AM 48.9007 -46.0979 252° West  Level FlightAware Approximate
Sun 09:57:00 AM 48.8635 -46.2734 252° West  Level FlightAware Approximate
Sun 09:58:00 AM 48.8260 -46.4485 252° West  Level FlightAware Approximate
Sun 09:59:00 AM 48.7883 -46.6234 252° West  Level FlightAware Approximate
Sun 10:00:00 AM 48.7503 -46.7981 252° West  Level FlightAware Approximate
Sun 10:01:00 AM 48.7121 -46.9724 252° West  Level FlightAware Approximate
Sun 10:02:00 AM 48.6735 -47.1465 252° West  Level FlightAware Approximate
Sun 10:03:00 AM 48.6348 -47.3204 251° West  Level FlightAware Approximate
Sun 10:04:00 AM 48.5957 -47.4940 251° West  Level FlightAware Approximate
Sun 10:05:00 AM 48.5564 -47.6673 251° West  Level FlightAware Approximate
Sun 10:06:00 AM 48.5169 -47.8403 251° West  Level FlightAware Approximate
Sun 10:07:00 AM 48.4771 -48.0131 251° West  Level FlightAware Approximate
Sun 10:08:00 AM 48.4370 -48.1855 251° West  Level FlightAware Approximate
Sun 10:09:00 AM 48.3966 -48.3578 251° West  Level FlightAware Approximate
Sun 10:10:00 AM 48.3561 -48.5297 251° West  Level FlightAware Approximate
Sun 10:11:00 AM 48.3152 -48.7014 250° West  Level FlightAware Approximate
Sun 10:12:00 AM 48.2741 -48.8728 250° West  Level FlightAware Approximate
Sun 10:13:00 AM 48.2328 -49.0439 250° West  Level FlightAware Approximate
Sun 10:14:00 AM 48.1912 -49.2147 250° West  Level FlightAware Approximate
Sun 10:15:00 AM 48.1493 -49.3853 250° West  Level FlightAware Approximate
Sun 10:16:00 AM 48.1072 -49.5556 250° West  Level FlightAware Approximate
Sun 10:16:22 AM 47.9320 -50.3850 250° West 460 529 33,000  Level FlightAware ADS-B
Sun 10:17:00 AM 48.0641 -49.7286 250° West  Level FlightAware Approximate
Sun 10:17:07 AM 47.9080 -50.5230 256° West 458 527 33,000  Level FlightAware ADS-B
Sun 10:17:47 AM 47.8860 -50.6480 255° West 457 526 33,000  Level FlightAware ADS-B
Sun 10:18:27 AM 47.8640 -50.7710 255° West 457 526 33,000  Level FlightAware ADS-B
Sun 10:19:12 AM 47.8410 -50.9030 255° West 457 526 33,000  Level FlightAware ADS-B
Sun 10:19:52 AM 47.8190 -51.0260 255° West 457 526 33,000  Level FlightAware ADS-B
Sun 10:20:37 AM 47.7940 -51.1630 255° West 455 524 33,000  Level FlightAware ADS-B
Sun 10:21:17 AM 47.7710 -51.2890 255° West 454 522 33,000  Level FlightAware ADS-B
Sun 10:21:57 AM 47.7500 -51.4040 255° West 454 522 33,000  Level FlightAware ADS-B
Sun 10:22:42 AM 47.7250 -51.5380 255° West 453 521 33,000 141 Level FlightAware ADS-B
Sun 10:23:22 AM 47.7030 -51.6610 255° West 454 522 33,200 706 Climbing FlightAware ADS-B
Sun 10:24:07 AM 47.6770 -51.7980 254° West 452 520 34,000 565 Climbing FlightAware ADS-B
Sun 10:24:47 AM 47.6540 -51.9190 254° West 450 518 34,000  Level FlightAware ADS-B
Sun 10:25:27 AM 47.6320 -52.0360 254° West 450 518 34,000  Level FlightAware ADS-B
Sun 10:26:12 AM 47.6060 -52.1730 254° West 449 517 34,000  Level FlightAware ADS-B
Sun 10:26:52 AM 47.5840 -52.2900 254° West 449 517 34,000  Level FlightAware ADS-B
Sun 10:27:32 AM 47.5600 -52.4100 254° West 449 517 34,000  Level FlightAware ADS-B
Sun 10:28:47 AM 47.5170 -52.6310 254° West 448 516 34,000  Level FlightAware ADS-B
Sun 10:29:32 AM 47.4910 -52.7660 254° West 448 516 34,000  Level FlightAware ADS-B
Sun 10:30:37 AM 47.4530 -52.9570 254° West 451 519 34,000  Level FlightAware ADS-B
Sun 10:31:22 AM 47.4260 -53.0900 253° West 450 518 34,000  Level FlightAware ADS-B
Sun 10:32:47 AM 47.3780 -53.3270 253° West 449 517 34,000  Level FlightAware ADS-B
Sun 10:33:27 AM 47.3550 -53.4440 254° West 449 517 34,000  Level FlightAware ADS-B
Sun 10:34:07 AM 47.3300 -53.5620 253° West 449 517 34,000  Level FlightAware ADS-B
Sun 10:34:42 AM 47.3090 -53.6650 253° West 449 517 34,000  Level FlightAware ADS-B
Sun 10:35:32 AM 47.2790 -53.8120 253° West 448 516 34,000  Level FlightAware ADS-B
Sun 10:36:27 AM 47.2460 -53.9700 253° West 449 517 34,000  Level FlightAware ADS-B
Sun 10:37:07 AM 47.2210 -54.0870 253° West 451 519 34,000  Level FlightAware ADS-B
Sun 10:37:52 AM 47.1930 -54.2180 253° West 450 518 34,000  Level FlightAware ADS-B
Sun 10:39:02 AM 47.1500 -54.4220 253° West 447 514 34,000  Level FlightAware ADS-B
Sun 10:40:12 AM 47.1070 -54.6220 253° West 443 510 34,000  Level FlightAware ADS-B
Sun 10:40:47 AM 47.0850 -54.7240 252° West 442 509 34,000  Level FlightAware ADS-B
Sun 10:41:37 AM 47.0510 -54.8800 252° West 444 511 34,000  Level FlightAware ADS-B
Sun 10:42:12 AM 47.0300 -54.9760 252° West 444 511 34,000  Level FlightAware ADS-B
Sun 10:42:57 AM 47.0040 -55.0900 252° West 444 511 34,000  Level FlightAware ADS-B
Sun 10:43:37 AM 46.9830 -55.1870 252° West 444 511 34,000  Level FlightAware ADS-B
Sun 10:44:22 AM 46.9500 -55.3350 252° West 34,000  Level FlightAware ADS-B
Sun 10:45:37 AM 46.9030 -55.5450 252° West 440 506 34,000  Level FlightAware ADS-B
Sun 10:46:32 AM 46.8710 -55.6870 252° West 440 506 34,000  Level FlightAware ADS-B
Sun 10:47:12 AM 46.8500 -55.7840 252° West 440 506 34,000  Level FlightAware ADS-B
Sun 10:47:52 AM 46.8160 -55.9250 251° West 441 507 34,000  Level FlightAware ADS-B
Sun 10:48:32 AM 46.7950 -56.0220 252° West 441 507 34,000  Level FlightAware ADS-B
Sun 10:49:12 AM 46.7740 -56.1180 252° West 441 507 34,000  Level FlightAware ADS-B
Sun 10:50:02 AM 46.7470 -56.2380 252° West 441 507 34,000  Level FlightAware ADS-B
Sun 10:50:42 AM 46.7250 -56.3350 252° West 441 507 34,000  Level FlightAware ADS-B
Sun 10:51:22 AM 46.7040 -56.4310 252° West 441 507 34,000  Level FlightAware ADS-B
Sun 10:52:02 AM 46.6820 -56.5270 252° West 441 507 34,000  Level FlightAware ADS-B
Sun 10:52:42 AM 46.6610 -56.6230 252° West 441 507 34,000  Level FlightAware ADS-B
Sun 10:53:32 AM 46.6340 -56.7430 252° West 441 507 34,000  Level FlightAware ADS-B
Sun 10:54:12 AM 46.6130 -56.8390 252° West 441 507 34,000  Level FlightAware ADS-B
Sun 10:54:52 AM 46.5910 -56.9350 252° West 441 507 34,000  Level FlightAware ADS-B
Sun 10:55:32 AM 46.5700 -57.0310 252° West 441 507 34,000  Level FlightAware ADS-B
Sun 10:56:12 AM 46.5480 -57.1270 252° West 441 507 34,000  Level FlightAware ADS-B
Sun 10:57:02 AM 46.5220 -57.2470 253° West 441 507 34,000 152 Level FlightAware ADS-B
Sun 11:02:47 AM 46.2070 -58.4230 249° West 441 507 35,000 154 Climbing FlightAware ADS-B
Sun 11:03:32 AM 46.1730 -58.5520 249° West 444 511 35,000  Level FlightAware ADS-B
Sun 11:04:17 AM 46.1400 -58.6820 250° West 445 512 35,000  Level FlightAware ADS-B
Sun 11:04:57 AM 46.1120 -58.7900 250° West 442 509 35,000  Level FlightAware ADS-B
Sun 11:05:37 AM 46.0830 -58.9000 249° West 441 507 35,000  Level FlightAware ADS-B
Sun 11:06:22 AM 46.0500 -59.0220 249° West 440 506 35,000  Level FlightAware ADS-B
Sun 11:07:02 AM 46.0210 -59.1320 249° West 441 507 35,000  Level FlightAware ADS-B
Sun 11:07:42 AM 45.9920 -59.2420 249° West 443 510 35,000  Level FlightAware ADS-B
Sun 11:08:27 AM 45.9580 -59.3680 249° West 444 511 35,000  Level FlightAware ADS-B
Sun 11:09:07 AM 45.9290 -59.4780 249° West 444 511 35,000  Level FlightAware ADS-B
Sun 11:09:52 AM 45.8960 -59.5990 249° West 446 513 35,000  Level FlightAware ADS-B
Sun 11:10:32 AM 45.8670 -59.7080 249° West 444 511 35,000  Level FlightAware ADS-B
Sun 11:11:17 AM 45.8320 -59.8340 248° West 441 507 35,000  Level FlightAware ADS-B
Sun 11:11:47 AM 45.8100 -59.9150 249° West 439 505 35,000  Level FlightAware ADS-B
Sun 11:12:22 AM 45.7850 -60.0070 249° West 439 505 35,000  Level FlightAware ADS-B
Sun 11:13:07 AM 45.7510 -60.1300 248° West 438 504 35,000  Level FlightAware ADS-B
Sun 11:13:47 AM 45.7200 -60.2390 248° West 438 504 35,000  Level FlightAware ADS-B
Sun 11:14:32 AM 45.6870 -60.3570 248° West 437 503 35,000  Level FlightAware ADS-B
Sun 11:15:12 AM 45.6580 -60.4630 249° West 436 502 35,000  Level FlightAware ADS-B
Sun 11:15:57 AM 45.6240 -60.5840 248° West 437 503 35,000  Level FlightAware ADS-B
Sun 11:16:37 AM 45.5960 -60.6830 248° West 437 503 35,000  Level FlightAware ADS-B
Sun 11:17:17 AM 45.5650 -60.7920 248° West 437 503 35,000  Level FlightAware ADS-B
Sun 11:17:57 AM 45.5390 -60.8830 248° West 437 503 35,000  Level FlightAware ADS-B
Sun 11:18:37 AM 45.5130 -60.9740 248° West 437 503 35,000  Level FlightAware ADS-B
Sun 11:19:27 AM 45.4810 -61.0870 248° West 437 503 35,000  Level FlightAware ADS-B
Sun 11:20:07 AM 45.4550 -61.1780 248° West 437 503 35,000  Level FlightAware ADS-B
Sun 11:20:47 AM 45.4300 -61.2690 249° West 437 503 35,000  Level FlightAware ADS-B
Sun 11:21:27 AM 45.4040 -61.3600 248° West 437 503 35,000  Level FlightAware ADS-B
Sun 11:22:07 AM 45.3780 -61.4500 248° West 437 503 35,000  Level FlightAware ADS-B
Sun 11:22:57 AM 45.3460 -61.5640 248° West 437 503 35,000  Level FlightAware ADS-B
Sun 11:23:37 AM 45.3200 -61.6540 248° West 437 503 35,000  Level FlightAware ADS-B
Sun 11:24:17 AM 45.2940 -61.7450 248° West 437 503 35,000  Level FlightAware ADS-B
Sun 11:24:57 AM 45.2690 -61.8360 249° West 437 503 35,000  Level FlightAware ADS-B
Sun 11:25:37 AM 45.2430 -61.9260 248° West 437 503 35,000  Level FlightAware ADS-B
Sun 11:26:27 AM 45.2110 -62.0390 248° West 437 503 35,000  Level FlightAware ADS-B
Sun 11:27:07 AM 45.0833 -62.3667 248° West 450 518 35,000  Level Moncton Center
Sun 11:28:07 AM 45.0333 -62.5000 242° Southwest 450 518 35,000  Level Moncton Center
Sun 11:33:32 AM 44.7720 -63.4310 242° Southwest 472 543 35,000  Level FlightAware ADS-B
Sun 11:34:22 AM 44.7310 -63.5620 246° West 474 545 35,000  Level FlightAware ADS-B
Sun 11:35:02 AM 44.6940 -63.6790 246° West 474 545 35,000  Level FlightAware ADS-B
Sun 11:36:12 AM 44.6360 -63.8590 246° West 473 544 35,000  Level FlightAware ADS-B
Sun 11:36:52 AM 44.5950 -63.9870 246° West 471 542 35,000  Level FlightAware ADS-B
Sun 11:37:37 AM 44.5540 -64.1130 245° Southwest 469 540 35,000  Level FlightAware ADS-B
Sun 11:38:17 AM 44.5170 -64.2260 245° Southwest 470 541 35,000  Level FlightAware ADS-B
Sun 11:38:57 AM 44.4820 -64.3340 246° West 472 543 35,000  Level FlightAware ADS-B
Sun 11:39:42 AM 44.4430 -64.4540 246° West 472 543 35,000  Level FlightAware ADS-B
Sun 11:40:22 AM 44.4030 -64.5740 245° Southwest 470 541 35,000  Level FlightAware ADS-B
Sun 11:41:07 AM 44.3630 -64.6960 245° Southwest 468 539 35,000  Level FlightAware ADS-B
Sun 11:41:47 AM 44.3270 -64.8050 245° Southwest 470 541 35,000  Level FlightAware ADS-B
Sun 11:42:32 AM 44.2880 -64.9190 244° Southwest 472 543 35,000  Level FlightAware ADS-B
Sun 11:43:07 AM 44.2530 -65.0240 245° Southwest 472 543 35,000  Level FlightAware ADS-B
Sun 11:43:52 AM 44.2100 -65.1520 245° Southwest 472 543 35,000  Level FlightAware ADS-B
Sun 11:44:37 AM 44.1700 -65.2710 245° Southwest 472 543 35,000  Level FlightAware ADS-B
Sun 11:45:17 AM 44.1320 -65.3820 245° Southwest 471 542 35,000  Level FlightAware ADS-B
Sun 11:46:02 AM 44.0910 -65.5020 245° Southwest 469 540 35,000  Level FlightAware ADS-B
Sun 11:46:32 AM 44.0630 -65.5840 245° Southwest 468 539 35,000  Level FlightAware ADS-B
Sun 11:47:22 AM 44.0170 -65.7180 245° Southwest 466 536 35,000  Level FlightAware ADS-B
Sun 11:48:07 AM 43.9740 -65.8420 244° Southwest 468 539 35,000  Level FlightAware ADS-B
Sun 11:48:47 AM 43.9370 -65.9500 245° Southwest 466 536 35,000  Level FlightAware ADS-B
Sun 11:49:32 AM 43.8950 -66.0700 244° Southwest 464 534 35,000  Level FlightAware ADS-B
Sun 11:50:12 AM 43.8580 -66.1770 244° Southwest 464 534 35,000  Level FlightAware ADS-B
Sun 11:50:52 AM 43.8200 -66.2860 244° Southwest 465 535 35,000  Level FlightAware ADS-B
Sun 11:51:37 AM 43.7760 -66.4080 243° Southwest 468 539 35,000  Level FlightAware ADS-B
Sun 11:52:17 AM 43.7390 -66.5140 244° Southwest 472 543 35,000  Level FlightAware ADS-B
Sun 11:53:02 AM 43.6940 -66.6390 244° Southwest 472 543 35,000  Level FlightAware ADS-B
Sun 11:53:37 AM 43.6630 -66.7250 244° Southwest 472 543 35,000  Level FlightAware ADS-B
Sun 11:54:22 AM 43.6180 -66.8510 244° Southwest 475 547 35,000  Level FlightAware ADS-B
Sun 11:54:57 AM 43.5830 -66.9500 244° Southwest 478 550 35,000  Level FlightAware ADS-B
Sun 11:55:37 AM 43.5410 -67.0560 241° Southwest 475 547 35,000  Level FlightAware ADS-B
Sun 11:56:12 AM 43.5020 -67.1490 240° Southwest 481 554 35,000  Level FlightAware ADS-B
Sun 11:56:52 AM 43.4580 -67.2540 240° Southwest 480 552 35,000  Level FlightAware ADS-B
Sun 11:57:32 AM 43.4130 -67.3610 240° Southwest 477 549 35,000  Level FlightAware ADS-B
Sun 11:58:17 AM 43.3640 -67.4760 240° Southwest 467 537 35,000  Level FlightAware ADS-B
Sun 11:58:57 AM 43.3200 -67.5800 240° Southwest 462 532 35,000  Level FlightAware ADS-B
Sun 11:59:37 AM 43.2760 -67.6810 239° Southwest 459 528 35,000  Level FlightAware ADS-B
Sun 12:00:22 PM 43.2270 -67.7970 240° Southwest 459 528 35,000  Level FlightAware ADS-B
Sun 12:01:02 PM 43.1870 -67.8900 239° Southwest 460 529 35,000  Level FlightAware ADS-B
Sun 12:01:42 PM 43.1450 -67.9880 240° Southwest 460 529 35,000  Level FlightAware ADS-B
Sun 12:02:22 PM 43.1090 -68.0740 240° Southwest 460 529 35,000  Level FlightAware ADS-B
Sun 12:03:22 PM 43.0310 -68.2500 239° Southwest 459 528 35,000  Level FlightAware ADS-B
Sun 12:04:07 PM 42.9810 -68.3630 239° Southwest 465 535 35,000  Level FlightAware ADS-B
Sun 12:04:37 PM 42.9500 -68.4330 239° Southwest 459 528 35,000  Level FlightAware ADS-B
Sun 12:05:27 PM 42.8930 -68.5620 239° Southwest 457 526 35,000  Level FlightAware ADS-B
Sun 12:06:07 PM 42.8530 -68.6540 239° Southwest 454 522 35,000  Level FlightAware ADS-B
Sun 12:06:52 PM 42.8000 -68.7730 239° Southwest 454 522 35,000  Level FlightAware ADS-B
Sun 12:07:47 PM 42.7400 -68.9080 239° Southwest 454 522 35,000  Level FlightAware ADS-B
Sun 12:08:27 PM 42.6960 -69.0060 239° Southwest 450 518 35,000  Level FlightAware ADS-B
Sun 12:09:12 PM 42.6510 -69.1080 239° Southwest 442 509 35,000  Level FlightAware ADS-B
Sun 12:09:57 PM 42.6330 -69.2320 259° West 415 478 35,000  Level FlightAware ADS-B
Sun 12:10:37 PM 42.6360 -69.3370 272° West 414 476 35,000  Level FlightAware ADS-B
Sun 12:11:17 PM 42.6400 -69.4410 273° West 413 475 35,000  Level FlightAware ADS-B
Sun 12:12:02 PM 42.6360 -69.5560 267° West 424 488 35,000  Level FlightAware ADS-B
Sun 12:12:42 PM 42.5980 -69.6530 242° Southwest 454 522 35,000  Level FlightAware ADS-B
Sun 12:13:27 PM 42.5320 -69.7470 226° Southwest 460 529 35,000  Level FlightAware ADS-B
Sun 12:14:12 PM 42.4650 -69.8400 226° Southwest 460 529 35,000  Level FlightAware ADS-B
Sun 12:14:47 PM 42.4130 -69.9120 226° Southwest 452 520 35,000  Level FlightAware ADS-B
Sun 12:15:32 PM 42.3470 -70.0050 226° Southwest 452 520 35,000  Level FlightAware ADS-B
Sun 12:16:12 PM 42.2910 -70.0840 226° Southwest 450 518 35,000  Level FlightAware ADS-B
Sun 12:16:52 PM 42.2310 -70.1670 226° Southwest 449 517 35,000  Level FlightAware ADS-B
Sun 12:17:37 PM 42.1640 -70.2600 226° Southwest 449 517 35,000  Level FlightAware ADS-B
Sun 12:18:17 PM 42.1090 -70.3370 226° Southwest 454 522 35,000  Level FlightAware ADS-B
Sun 12:18:52 PM 42.0570 -70.4120 227° Southwest 446 513 35,000 -218 Level FlightAware ADS-B
Sun 12:20:07 PM 41.9910 -70.5950 244° Southwest 436 502 34,600 -554 Descending FlightAware ADS-B
Sun 12:21:02 PM 41.9480 -70.7320 247° West 433 498 33,800 -947 Descending FlightAware ADS-B
Sun 12:21:42 PM 41.9170 -70.8280 247° West 425 489 33,100 -1,059 Descending FlightAware ADS-B
Sun 12:22:27 PM 41.8820 -70.9410 247° West 422 486 32,300 -988 Descending FlightAware ADS-B
Sun 12:23:07 PM 41.8510 -71.0360 246° West 421 484 31,700 -988 Descending FlightAware ADS-B
Sun 12:23:52 PM 41.8170 -71.1440 247° West 417 480 30,900 -1,200 Descending FlightAware ADS-B
Sun 12:24:37 PM 41.7800 -71.2490 245° Southwest 423 487 29,900 -1,412 Descending FlightAware ADS-B
Sun 12:25:17 PM 41.7310 -71.3340 232° Southwest 441 507 28,900 -1,350 Descending FlightAware ADS-B
Sun 12:25:57 PM 41.6750 -71.4080 225° Southwest 434 499 28,100 -1,059 Descending FlightAware ADS-B
Sun 12:26:42 PM 41.6080 -71.4950 224° Southwest 431 496 27,400 -918 Descending FlightAware ADS-B
Sun 12:27:22 PM 41.5560 -71.5630 224° Southwest 433 498 26,800 -900 Descending FlightAware ADS-B
Sun 12:28:02 PM 41.5020 -71.6340 225° Southwest 429 494 26,200 -900 Descending FlightAware ADS-B
Sun 12:28:42 PM 41.4440 -71.7110 225° Southwest 426 490 25,600 -918 Descending FlightAware ADS-B
Sun 12:29:27 PM 41.3780 -71.7970 224° Southwest 422 486 24,900 -776 Descending FlightAware ADS-B
Sun 12:30:07 PM 41.3750 -71.8010 225° Southwest 422 486 24,500 -565 Descending FlightAware ADS-B
Sun 12:30:52 PM 41.2620 -71.9450 224° Southwest 416 479 24,100 -947 Descending FlightAware ADS-B
Sun 12:31:42 PM 41.2620 -71.9440 90° East 413 475 23,000 -660 Descending FlightAware ADS-B
Sun 12:32:32 PM 41.2010 -72.0160 222° Southwest 413 475 23,000  Level FlightAware ADS-B
Sun 12:33:12 PM 41.1530 -72.0730 222° Southwest 413 475 23,000  Level FlightAware ADS-B
Sun 12:33:52 PM 41.1050 -72.1310 222° Southwest 413 475 23,000 -3,600 Level FlightAware ADS-B
Sun 12:35:02 PM 41.0030 -72.4270 246° West 374 430 16,400 -3,559 Descending FlightAware ADS-B
Sun 12:36:17 PM 40.9290 -72.5690 235° Southwest 357 411 14,400 -1,309 Descending FlightAware ADS-B
Sun 12:38:42 PM 40.7970 -72.8220 235° Southwest 304 350 11,600 -927 Descending FlightAware ADS-B
Sun 12:39:57 PM 40.7570 -72.9440 247° West 280 322 11,000 -800 Descending FlightAware ADS-B
Sun 12:40:42 PM 40.7410 -73.0180 254° West 281 323 10,000 -1,300 Descending FlightAware ADS-B
Sun 12:40:57 PM 40.7360 -73.0410 254° West 279 321 9,700 -1,050 Descending FlightAware ADS-B
Sun 12:41:22 PM 40.7270 -73.0820 254° West 274 315 9,300 -1,091 Descending FlightAware ADS-B
Sun 12:41:52 PM 40.7180 -73.1260 255° West 272 313 8,700 -1,200 Descending FlightAware ADS-B
Sun 12:42:17 PM 40.7090 -73.1660 253° West 270 311 8,200 -1,350 Descending FlightAware ADS-B
Sun 12:42:32 PM 40.6940 -73.1900 231° Southwest 277 319 7,800 -1,333 Descending FlightAware ADS-B
Sun 12:43:02 PM 40.6590 -73.2210 214° Southwest 270 311 7,200 -1,050 Descending FlightAware ADS-B
Sun 12:43:12 PM 40.6530 -73.2270 217° Southwest 269 310 7,100 -1,200 Descending FlightAware ADS-B
Sun 12:43:42 PM 40.6200 -73.2570 215° Southwest 266 306 6,400 -1,309 Descending FlightAware ADS-B
Sun 12:44:07 PM 40.5950 -73.2820 217° Southwest 261 300 5,900 -1,067 Descending FlightAware ADS-B
Sun 12:44:27 PM 40.5870 -73.3060 246° West 255 293 5,600 -1,200 Descending FlightAware ADS-B
Sun 12:44:52 PM 40.5960 -73.3450 287° West 254 292 5,000 -1,200 Descending FlightAware ADS-B
Sun 12:45:17 PM 40.6160 -73.3700 317° Northwest 254 292 4,600 -1,200 Descending FlightAware ADS-B
Sun 12:45:47 PM 40.6440 -73.4030 318° Northwest 253 291 3,900 -1,200 Descending FlightAware ADS-B
Sun 12:46:02 PM 40.6560 -73.4180 317° Northwest 253 291 3,700 -400 Descending FlightAware ADS-B
Sun 12:46:32 PM 40.6830 -73.4490 319° Northwest 240 276 3,600 -109 Descending FlightAware ADS-B
Sun 12:46:57 PM 40.7030 -73.4730 318° Northwest 215 247 3,600 -327 Level FlightAware ADS-B
Sun 12:47:27 PM 40.7220 -73.4980 315° West 200 230 3,300 -764 Descending FlightAware ADS-B
Sun 12:47:52 PM 40.7390 -73.5200 316° Northwest 189 217 2,900 -900 Descending FlightAware ADS-B
Sun 12:48:07 PM 40.7480 -73.5310 317° Northwest 186 214 2,700 -667 Descending FlightAware ADS-B
Sun 12:48:37 PM 40.7640 -73.5530 314° West 169 194 2,400 -800 Descending FlightAware ADS-B
Sun 12:48:52 PM 40.7700 -73.5660 301° West 163 188 2,100 -1,200 Descending FlightAware ADS-B
Sun 12:48:57 PM 40.7700 -73.5700 270° West 160 184 2,000 -1,200 Descending FlightAware ADS-B
Sun 12:49:17 PM 40.7660 -73.5900 255° West 160 184 1,600 -686 Descending FlightAware ADS-B
Sun 12:49:32 PM 40.7610 -73.6030 243° Southwest 158 182 1,600  Level FlightAware ADS-B
Sun 12:50:02 PM 40.7500 -73.6300 242° Southwest 161 185 1,600  Level FlightAware ADS-B
Sun 12:50:27 PM 40.7420 -73.6510 243° Southwest 160 184 1,600 -109 Level FlightAware ADS-B
Sun 12:50:57 PM 40.7250 -73.6690 219° Southwest 156 180 1,500 -218 Descending FlightAware ADS-B
Sun 12:51:22 PM 40.7110 -73.6850 221° Southwest 151 174 1,400 -600 Descending FlightAware ADS-B
Sun 12:51:37 PM 40.7040 -73.6930 221° Southwest 152 175 1,100 -933 Descending FlightAware ADS-B
Sun 12:52:07 PM 40.6880 -73.7130 223° Southwest 149 171 700 -764 Descending FlightAware ADS-B
Sun 12:52:32 PM 40.6760 -73.7280 223° Southwest 147 169 400 -750 Descending FlightAware ADS-B
Sun 12:52:47 PM 40.6680 -73.7360 217° Southwest 148 170 200 -800 Descending FlightAware ADS-B
Sun 12:53:17 PM 40.6510 -73.7500 212° Southwest 146 168 -400 Descending FlightAware ADS-B

Login

Don't have an account? Register now (free) for customized features, flight alerts, and more!